sensor_id;sensor_type;location;lat;lon;timestamp;P1;durP1;ratioP1;P2;durP2;ratioP2
27031;SDS011;14580;52.918;9.214;2023-04-01T00:01:56;4.03;;;2.40;;
27031;SDS011;14580;52.918;9.214;2023-04-01T00:05:20;4.87;;;2.40;;
27031;SDS011;14580;52.918;9.214;2023-04-01T00:08:46;3.03;;;2.73;;
27031;SDS011;14580;52.918;9.214;2023-04-01T00:12:11;5.17;;;2.87;;
27031;SDS011;14580;52.918;9.214;2023-04-01T00:15:35;5.37;;;3.03;;
27031;SDS011;14580;52.918;9.214;2023-04-01T00:19:00;6.93;;;2.90;;
27031;SDS011;14580;52.918;9.214;2023-04-01T00:22:25;4.30;;;2.93;;
27031;SDS011;14580;52.918;9.214;2023-04-01T00:25:50;5.23;;;2.70;;
27031;SDS011;14580;52.918;9.214;2023-04-01T00:29:15;2.57;;;1.87;;
27031;SDS011;14580;52.918;9.214;2023-04-01T00:32:40;2.63;;;2.43;;
27031;SDS011;14580;52.918;9.214;2023-04-01T00:36:09;7.00;;;2.77;;
27031;SDS011;14580;52.918;9.214;2023-04-01T00:39:38;5.53;;;3.13;;
27031;SDS011;14580;52.918;9.214;2023-04-01T00:43:12;3.97;;;2.70;;
27031;SDS011;14580;52.918;9.214;2023-04-01T00:46:48;5.47;;;2.70;;
27031;SDS011;14580;52.918;9.214;2023-04-01T00:50:13;6.37;;;3.23;;
27031;SDS011;14580;52.918;9.214;2023-04-01T00:53:47;5.73;;;3.23;;
27031;SDS011;14580;52.918;9.214;2023-04-01T01:00:42;6.13;;;3.00;;
27031;SDS011;14580;52.918;9.214;2023-04-01T01:04:07;5.27;;;3.20;;
27031;SDS011;14580;52.918;9.214;2023-04-01T01:08:01;6.73;;;3.20;;
27031;SDS011;14580;52.918;9.214;2023-04-01T01:11:54;6.13;;;3.20;;
27031;SDS011;14580;52.918;9.214;2023-04-01T01:31:20;3.37;;;3.07;;
27031;SDS011;14580;52.918;9.214;2023-04-01T01:39:10;6.70;;;3.23;;
27031;SDS011;14580;52.918;9.214;2023-04-01T01:42:39;6.07;;;3.20;;
27031;SDS011;14580;52.918;9.214;2023-04-01T01:46:12;4.27;;;2.87;;
27031;SDS011;14580;52.918;9.214;2023-04-01T01:49:39;4.57;;;3.07;;
27031;SDS011;14580;52.918;9.214;2023-04-01T01:53:07;3.00;;;2.43;;
27031;SDS011;14580;52.918;9.214;2023-04-01T01:56:37;3.77;;;2.50;;
27031;SDS011;14580;52.918;9.214;2023-04-01T02:00:08;3.80;;;2.30;;
27031;SDS011;14580;52.918;9.214;2023-04-01T02:03:39;3.40;;;2.37;;
27031;SDS011;14580;52.918;9.214;2023-04-01T02:07:08;5.73;;;2.90;;
27031;SDS011;14580;52.918;9.214;2023-04-01T02:10:37;6.27;;;2.93;;
27031;SDS011;14580;52.918;9.214;2023-04-01T02:14:14;3.30;;;3.00;;
27031;SDS011;14580;52.918;9.214;2023-04-01T02:17:46;4.40;;;3.03;;
27031;SDS011;14580;52.918;9.214;2023-04-01T02:21:15;4.50;;;3.20;;
27031;SDS011;14580;52.918;9.214;2023-04-01T02:24:47;4.93;;;3.57;;
27031;SDS011;14580;52.918;9.214;2023-04-01T02:28:14;4.23;;;2.93;;
27031;SDS011;14580;52.918;9.214;2023-04-01T02:31:43;3.10;;;2.77;;
27031;SDS011;14580;52.918;9.214;2023-04-01T02:35:11;3.00;;;2.70;;
27031;SDS011;14580;52.918;9.214;2023-04-01T02:38:38;3.00;;;2.80;;
27031;SDS011;14580;52.918;9.214;2023-04-01T02:42:04;3.40;;;2.90;;
27031;SDS011;14580;52.918;9.214;2023-04-01T02:45:29;3.00;;;2.80;;
27031;SDS011;14580;52.918;9.214;2023-04-01T02:48:54;4.47;;;2.40;;
27031;SDS011;14580;52.918;9.214;2023-04-01T02:52:27;3.70;;;2.83;;
27031;SDS011;14580;52.918;9.214;2023-04-01T02:55:52;3.00;;;2.70;;
27031;SDS011;14580;52.918;9.214;2023-04-01T02:59:17;4.60;;;3.17;;
27031;SDS011;14580;52.918;9.214;2023-04-01T03:02:42;5.50;;;3.30;;
27031;SDS011;14580;52.918;9.214;2023-04-01T03:06:08;4.60;;;3.27;;
27031;SDS011;14580;52.918;9.214;2023-04-01T03:09:35;3.57;;;2.33;;
27031;SDS011;14580;52.918;9.214;2023-04-01T03:13:01;4.13;;;2.70;;
27031;SDS011;14580;52.918;9.214;2023-04-01T03:16:25;2.60;;;2.33;;
27031;SDS011;14580;52.918;9.214;2023-04-01T03:19:50;2.97;;;2.57;;
27031;SDS011;14580;52.918;9.214;2023-04-01T03:23:15;3.87;;;2.20;;
27031;SDS011;14580;52.918;9.214;2023-04-01T03:26:40;3.37;;;2.37;;
27031;SDS011;14580;52.918;9.214;2023-04-01T03:30:05;2.77;;;2.10;;
27031;SDS011;14580;52.918;9.214;2023-04-01T03:33:31;4.67;;;2.07;;
27031;SDS011;14580;52.918;9.214;2023-04-01T03:36:57;2.50;;;2.13;;
27031;SDS011;14580;52.918;9.214;2023-04-01T03:40:22;2.40;;;2.20;;
27031;SDS011;14580;52.918;9.214;2023-04-01T03:43:47;2.40;;;2.17;;
27031;SDS011;14580;52.918;9.214;2023-04-01T03:47:12;4.37;;;1.93;;
27031;SDS011;14580;52.918;9.214;2023-04-01T03:50:36;2.20;;;2.00;;
27031;SDS011;14580;52.918;9.214;2023-04-01T03:54:01;5.03;;;2.20;;
27031;SDS011;14580;52.918;9.214;2023-04-01T03:57:26;2.50;;;2.10;;
27031;SDS011;14580;52.918;9.214;2023-04-01T04:00:51;4.03;;;2.43;;
27031;SDS011;14580;52.918;9.214;2023-04-01T04:04:16;2.43;;;1.70;;
27031;SDS011;14580;52.918;9.214;2023-04-01T04:07:41;5.13;;;2.27;;
27031;SDS011;14580;52.918;9.214;2023-04-01T04:11:06;3.90;;;2.07;;
27031;SDS011;14580;52.918;9.214;2023-04-01T04:14:31;2.87;;;1.70;;
27031;SDS011;14580;52.918;9.214;2023-04-01T04:17:56;2.40;;;2.20;;
27031;SDS011;14580;52.918;9.214;2023-04-01T04:21:21;4.33;;;1.57;;
27031;SDS011;14580;52.918;9.214;2023-04-01T04:24:46;3.93;;;1.90;;
27031;SDS011;14580;52.918;9.214;2023-04-01T04:28:20;2.03;;;1.60;;
27031;SDS011;14580;52.918;9.214;2023-04-01T04:31:45;3.87;;;2.10;;
27031;SDS011;14580;52.918;9.214;2023-04-01T04:35:10;2.33;;;1.70;;
27031;SDS011;14580;52.918;9.214;2023-04-01T04:38:34;3.03;;;1.90;;
27031;SDS011;14580;52.918;9.214;2023-04-01T04:42:01;2.30;;;1.50;;
27031;SDS011;14580;52.918;9.214;2023-04-01T04:45:25;5.03;;;2.07;;
27031;SDS011;14580;52.918;9.214;2023-04-01T04:48:50;2.90;;;1.50;;
27031;SDS011;14580;52.918;9.214;2023-04-01T04:52:15;3.47;;;1.80;;
27031;SDS011;14580;52.918;9.214;2023-04-01T04:55:47;2.40;;;1.70;;
27031;SDS011;14580;52.918;9.214;2023-04-01T04:59:13;1.63;;;1.40;;
27031;SDS011;14580;52.918;9.214;2023-04-01T05:02:38;4.97;;;1.40;;
27031;SDS011;14580;52.918;9.214;2023-04-01T05:06:03;1.57;;;1.20;;
27031;SDS011;14580;52.918;9.214;2023-04-01T05:09:28;1.50;;;0.97;;
27031;SDS011;14580;52.918;9.214;2023-04-01T05:12:53;5.23;;;1.00;;
27031;SDS011;14580;52.918;9.214;2023-04-01T05:16:19;1.97;;;0.90;;
27031;SDS011;14580;52.918;9.214;2023-04-01T05:19:44;1.90;;;1.20;;
27031;SDS011;14580;52.918;9.214;2023-04-01T05:23:12;1.17;;;1.07;;
27031;SDS011;14580;52.918;9.214;2023-04-01T05:26:37;1.20;;;1.10;;
27031;SDS011;14580;52.918;9.214;2023-04-01T05:30:02;1.50;;;1.00;;
27031;SDS011;14580;52.918;9.214;2023-04-01T05:33:29;2.43;;;1.20;;
27031;SDS011;14580;52.918;9.214;2023-04-01T05:36:54;2.47;;;1.20;;
27031;SDS011;14580;52.918;9.214;2023-04-01T05:40:19;2.17;;;0.73;;
27031;SDS011;14580;52.918;9.214;2023-04-01T05:43:43;1.50;;;0.80;;
27031;SDS011;14580;52.918;9.214;2023-04-01T05:47:08;0.90;;;0.67;;
27031;SDS011;14580;52.918;9.214;2023-04-01T05:50:33;1.37;;;0.80;;
27031;SDS011;14580;52.918;9.214;2023-04-01T05:53:58;2.03;;;1.00;;
27031;SDS011;14580;52.918;9.214;2023-04-01T05:57:14;1.57;;;1.00;;
27031;SDS011;14580;52.918;9.214;2023-04-01T06:00:40;2.20;;;0.70;;
27031;SDS011;14580;52.918;9.214;2023-04-01T06:04:05;0.83;;;0.70;;
27031;SDS011;14580;52.918;9.214;2023-04-01T06:07:43;2.63;;;0.80;;
27031;SDS011;14580;52.918;9.214;2023-04-01T06:15:12;1.37;;;0.87;;
27031;SDS011;14580;52.918;9.214;2023-04-01T06:39:39;3.00;;;1.43;;
27031;SDS011;14580;52.918;9.214;2023-04-01T06:55:55;1.60;;;1.10;;
27031;SDS011;14580;52.918;9.214;2023-04-01T06:59:15;3.90;;;1.20;;
27031;SDS011;14580;52.918;9.214;2023-04-01T07:03:51;1.60;;;1.50;;
27031;SDS011;14580;52.918;9.214;2023-04-01T07:07:19;2.07;;;1.40;;
27031;SDS011;14580;52.918;9.214;2023-04-01T07:11:04;2.30;;;1.80;;
27031;SDS011;14580;52.918;9.214;2023-04-01T07:14:49;2.67;;;1.80;;
27031;SDS011;14580;52.918;9.214;2023-04-01T07:18:22;3.03;;;1.70;;
27031;SDS011;14580;52.918;9.214;2023-04-01T07:22:04;1.93;;;1.73;;
27031;SDS011;14580;52.918;9.214;2023-04-01T07:25:44;1.63;;;1.37;;
27031;SDS011;14580;52.918;9.214;2023-04-01T07:29:19;2.23;;;1.40;;
27031;SDS011;14580;52.918;9.214;2023-04-01T07:36:32;4.07;;;1.97;;
27031;SDS011;14580;52.918;9.214;2023-04-01T07:40:40;2.50;;;1.70;;
27031;SDS011;14580;52.918;9.214;2023-04-01T07:52:22;3.97;;;1.90;;
27031;SDS011;14580;52.918;9.214;2023-04-01T08:06:47;3.33;;;1.90;;
27031;SDS011;14580;52.918;9.214;2023-04-01T08:14:36;2.00;;;1.90;;
27031;SDS011;14580;52.918;9.214;2023-04-01T08:21:58;2.13;;;1.90;;
27031;SDS011;14580;52.918;9.214;2023-04-01T08:25:33;2.57;;;2.20;;
27031;SDS011;14580;52.918;9.214;2023-04-01T08:29:16;1.80;;;1.50;;
27031;SDS011;14580;52.918;9.214;2023-04-01T08:36:46;2.40;;;1.90;;
27031;SDS011;14580;52.918;9.214;2023-04-01T08:48:40;3.83;;;2.20;;
27031;SDS011;14580;52.918;9.214;2023-04-01T08:52:37;2.00;;;1.90;;
27031;SDS011;14580;52.918;9.214;2023-04-01T08:56:23;4.47;;;1.90;;
27031;SDS011;14580;52.918;9.214;2023-04-01T09:04:01;2.20;;;2.00;;
27031;SDS011;14580;52.918;9.214;2023-04-01T09:16:42;2.07;;;1.90;;
27031;SDS011;14580;52.918;9.214;2023-04-01T09:20:42;2.33;;;2.13;;
27031;SDS011;14580;52.918;9.214;2023-04-01T09:36:32;2.40;;;2.00;;
27031;SDS011;14580;52.918;9.214;2023-04-01T09:40:18;3.57;;;2.47;;
27031;SDS011;14580;52.918;9.214;2023-04-01T10:03:48;6.60;;;1.83;;
27031;SDS011;14580;52.918;9.214;2023-04-01T10:07:35;2.40;;;1.50;;
27031;SDS011;14580;52.918;9.214;2023-04-01T10:15:40;2.10;;;1.80;;
27031;SDS011;14580;52.918;9.214;2023-04-01T10:23:33;1.63;;;1.53;;
27031;SDS011;14580;52.918;9.214;2023-04-01T10:27:23;2.60;;;1.97;;
27031;SDS011;14580;52.918;9.214;2023-04-01T10:31:42;4.20;;;1.97;;
27031;SDS011;14580;52.918;9.214;2023-04-01T10:39:51;1.60;;;1.50;;
27031;SDS011;14580;52.918;9.214;2023-04-01T10:55:18;1.43;;;1.23;;
27031;SDS011;14580;52.918;9.214;2023-04-01T11:03:03;0.30;;;0.30;;
27031;SDS011;14580;52.918;9.214;2023-04-01T11:27:16;0.30;;;0.30;;
27031;SDS011;14580;52.918;9.214;2023-04-01T11:31:23;0.53;;;0.53;;
27031;SDS011;14580;52.918;9.214;2023-04-01T11:35:32;0.43;;;0.43;;
27031;SDS011;14580;52.918;9.214;2023-04-01T11:39:19;0.30;;;0.30;;
27031;SDS011;14580;52.918;9.214;2023-04-01T11:47:02;0.33;;;0.33;;
27031;SDS011;14580;52.918;9.214;2023-04-01T11:54:25;0.40;;;0.40;;
27031;SDS011;14580;52.918;9.214;2023-04-01T11:58:27;0.50;;;0.50;;
27031;SDS011;14580;52.918;9.214;2023-04-01T12:06:51;0.67;;;0.50;;
27031;SDS011;14580;52.918;9.214;2023-04-01T12:11:00;1.67;;;0.50;;
27031;SDS011;14580;52.918;9.214;2023-04-01T12:22:43;0.43;;;0.40;;
27031;SDS011;14580;52.918;9.214;2023-04-01T12:26:47;0.70;;;0.70;;
27031;SDS011;14580;52.918;9.214;2023-04-01T12:45:29;0.50;;;0.50;;
27031;SDS011;14580;52.918;9.214;2023-04-01T13:13:18;0.77;;;0.63;;
27031;SDS011;14580;52.918;9.214;2023-04-01T13:52:27;0.40;;;0.40;;
27031;SDS011;14580;52.918;9.214;2023-04-01T13:56:24;0.57;;;0.57;;
27031;SDS011;14580;52.918;9.214;2023-04-01T14:08:31;0.33;;;0.33;;
27031;SDS011;14580;52.918;9.214;2023-04-01T14:12:15;0.43;;;0.43;;
27031;SDS011;14580;52.918;9.214;2023-04-01T14:27:31;1.17;;;0.80;;
27031;SDS011;14580;52.918;9.214;2023-04-01T14:50:44;0.40;;;0.40;;
27031;SDS011;14580;52.918;9.214;2023-04-01T14:57:44;0.50;;;0.50;;
27031;SDS011;14580;52.918;9.214;2023-04-01T15:01:43;0.40;;;0.40;;
27031;SDS011;14580;52.918;9.214;2023-04-01T15:05:45;0.73;;;0.70;;
27031;SDS011;14580;52.918;9.214;2023-04-01T15:17:29;0.50;;;0.50;;
27031;SDS011;14580;52.918;9.214;2023-04-01T15:36:57;0.70;;;0.60;;
27031;SDS011;14580;52.918;9.214;2023-04-01T15:40:57;1.27;;;0.63;;
27031;SDS011;14580;52.918;9.214;2023-04-01T15:48:40;1.10;;;0.90;;
27031;SDS011;14580;52.918;9.214;2023-04-01T16:04:02;1.23;;;1.00;;
27031;SDS011;14580;52.918;9.214;2023-04-01T16:11:56;1.03;;;0.93;;
27031;SDS011;14580;52.918;9.214;2023-04-01T16:15:44;0.80;;;0.70;;
27031;SDS011;14580;52.918;9.214;2023-04-01T16:23:22;2.03;;;1.03;;
27031;SDS011;14580;52.918;9.214;2023-04-01T16:27:04;1.30;;;1.20;;
27031;SDS011;14580;52.918;9.214;2023-04-01T16:34:47;1.27;;;0.80;;
27031;SDS011;14580;52.918;9.214;2023-04-01T16:42:53;1.20;;;1.10;;
27031;SDS011;14580;52.918;9.214;2023-04-01T16:46:38;2.67;;;1.07;;
27031;SDS011;14580;52.918;9.214;2023-04-01T16:50:55;1.60;;;1.40;;
27031;SDS011;14580;52.918;9.214;2023-04-01T17:02:17;3.37;;;1.60;;
27031;SDS011;14580;52.918;9.214;2023-04-01T17:05:53;3.07;;;1.40;;
27031;SDS011;14580;52.918;9.214;2023-04-01T17:13:52;2.23;;;2.03;;
27031;SDS011;14580;52.918;9.214;2023-04-01T17:22:29;3.20;;;2.23;;
27031;SDS011;14580;52.918;9.214;2023-04-01T17:25:48;3.13;;;2.00;;
27031;SDS011;14580;52.918;9.214;2023-04-01T17:29:46;2.67;;;2.40;;
27031;SDS011;14580;52.918;9.214;2023-04-01T17:37:37;2.10;;;1.90;;
27031;SDS011;14580;52.918;9.214;2023-04-01T17:49:38;2.47;;;1.73;;
27031;SDS011;14580;52.918;9.214;2023-04-01T18:04:40;3.13;;;2.43;;
27031;SDS011;14580;52.918;9.214;2023-04-01T18:27:29;4.93;;;3.10;;
27031;SDS011;14580;52.918;9.214;2023-04-01T18:31:32;3.53;;;2.90;;
27031;SDS011;14580;52.918;9.214;2023-04-01T18:39:46;3.83;;;3.30;;
27031;SDS011;14580;52.918;9.214;2023-04-01T18:43:46;3.27;;;2.97;;
27031;SDS011;14580;52.918;9.214;2023-04-01T18:47:43;7.23;;;3.10;;
27031;SDS011;14580;52.918;9.214;2023-04-01T18:51:46;6.50;;;2.47;;
27031;SDS011;14580;52.918;9.214;2023-04-01T18:59:29;5.80;;;2.60;;
27031;SDS011;14580;52.918;9.214;2023-04-01T19:03:08;4.93;;;2.50;;
27031;SDS011;14580;52.918;9.214;2023-04-01T19:14:53;4.93;;;2.83;;
27031;SDS011;14580;52.918;9.214;2023-04-01T19:34:25;5.30;;;3.50;;
27031;SDS011;14580;52.918;9.214;2023-04-01T20:01:01;6.27;;;2.90;;
27031;SDS011;14580;52.918;9.214;2023-04-01T20:05:11;5.13;;;3.87;;
27031;SDS011;14580;52.918;9.214;2023-04-01T20:16:49;6.17;;;4.43;;
27031;SDS011;14580;52.918;9.214;2023-04-01T20:20:23;5.60;;;4.30;;
27031;SDS011;14580;52.918;9.214;2023-04-01T20:23:50;9.17;;;4.83;;
27031;SDS011;14580;52.918;9.214;2023-04-01T20:27:23;6.60;;;4.60;;
27031;SDS011;14580;52.918;9.214;2023-04-01T20:35:16;6.40;;;4.80;;
27031;SDS011;14580;52.918;9.214;2023-04-01T20:50:41;6.97;;;4.30;;
27031;SDS011;14580;52.918;9.214;2023-04-01T21:05:47;5.87;;;3.90;;
27031;SDS011;14580;52.918;9.214;2023-04-01T21:17:42;5.17;;;4.00;;
27031;SDS011;14580;52.918;9.214;2023-04-01T21:25:17;4.37;;;3.77;;
27031;SDS011;14580;52.918;9.214;2023-04-01T21:44:20;6.33;;;3.20;;
27031;SDS011;14580;52.918;9.214;2023-04-01T22:08:05;6.90;;;3.37;;
27031;SDS011;14580;52.918;9.214;2023-04-01T22:12:01;8.17;;;3.20;;
27031;SDS011;14580;52.918;9.214;2023-04-01T22:24:17;3.37;;;2.60;;
27031;SDS011;14580;52.918;9.214;2023-04-01T22:28:06;4.07;;;3.30;;
27031;SDS011;14580;52.918;9.214;2023-04-01T22:31:44;5.83;;;2.50;;
27031;SDS011;14580;52.918;9.214;2023-04-01T22:43:09;6.73;;;2.53;;
27031;SDS011;14580;52.918;9.214;2023-04-01T22:47:02;4.67;;;2.93;;
27031;SDS011;14580;52.918;9.214;2023-04-01T22:54:13;4.60;;;2.17;;
27031;SDS011;14580;52.918;9.214;2023-04-01T22:57:52;3.27;;;1.73;;
27031;SDS011;14580;52.918;9.214;2023-04-01T23:01:30;3.03;;;1.73;;
27031;SDS011;14580;52.918;9.214;2023-04-01T23:05:04;3.17;;;2.13;;
27031;SDS011;14580;52.918;9.214;2023-04-01T23:12:13;5.53;;;1.90;;
27031;SDS011;14580;52.918;9.214;2023-04-01T23:15:45;5.90;;;2.03;;
27031;SDS011;14580;52.918;9.214;2023-04-01T23:19:25;3.37;;;2.50;;
27031;SDS011;14580;52.918;9.214;2023-04-01T23:23:38;2.97;;;1.90;;
27031;SDS011;14580;52.918;9.214;2023-04-01T23:27:37;4.50;;;1.87;;
27031;SDS011;14580;52.918;9.214;2023-04-01T23:31:35;3.00;;;1.37;;
27031;SDS011;14580;52.918;9.214;2023-04-01T23:35:01;3.27;;;1.50;;
27031;SDS011;14580;52.918;9.214;2023-04-01T23:38:39;4.77;;;1.60;;
27031;SDS011;14580;52.918;9.214;2023-04-01T23:42:06;1.77;;;1.20;;
27031;SDS011;14580;52.918;9.214;2023-04-01T23:45:47;3.60;;;1.30;;
27031;SDS011;14580;52.918;9.214;2023-04-01T23:49:20;6.30;;;1.37;;
27031;SDS011;14580;52.918;9.214;2023-04-01T23:52:54;3.13;;;1.23;;
27031;SDS011;14580;52.918;9.214;2023-04-01T23:56:46;1.20;;;1.00;;
